Shelton, Idaho
Current Conditions -  °F | °C
As of 3:53 AM on Sunday 23 Nov 2014 (Local Time) from KIDA Reporting Station
Scattered Clouds Scattered Clouds  
Wind Chill: 18°   Ceiling: Unl
Heat Index: 27°   Visibility: 10mi
Dew Point: 23°   Wind: 9mph
Humidity: 85%   Direction: 240°WSW
Pressure: 29.96"   Gusts: NA
Location:  43.498°N, 111.73°W
Report Text: KIDA 231053Z AUTO 24008KT 10SM SCT110 M03/M05 A2996 RMK AO2 SLP166 T10281050
Loading
Personal Weather Stations






























Interactive Weather Map New forecast layout! Learn more

10-Day Weather Forecast

Advertisements
Track Severe Weather on mobile